sensor_id;sensor_type;location;lat;lon;timestamp;pressure;altitude;pressure_sealevel;temperature;humidity
40982;BME280;26708;50.304;19.028;2023-05-20T00:00:33;99236.56;;;11.81;70.31
40982;BME280;26708;50.304;19.028;2023-05-20T00:02:38;99217.28;;;11.70;70.20
40982;BME280;26708;50.304;19.028;2023-05-20T00:04:42;99239.22;;;11.86;70.26
40982;BME280;26708;50.304;19.028;2023-05-20T00:06:47;99221.63;;;11.61;70.38
40982;BME280;26708;50.304;19.028;2023-05-20T00:09:07;99236.56;;;11.82;70.43
40982;BME280;26708;50.304;19.028;2023-05-20T00:11:26;99126.16;;;11.05;70.52
40982;BME280;26708;50.304;19.028;2023-05-20T00:13:48;99240.94;;;11.82;70.48
40982;BME280;26708;50.304;19.028;2023-05-20T00:16:07;99218.19;;;11.71;70.48
40982;BME280;26708;50.304;19.028;2023-05-20T00:18:27;99240.94;;;11.85;70.55
40982;BME280;26708;50.304;19.028;2023-05-20T00:20:47;99170.88;;;11.45;70.23
40982;BME280;26708;50.304;19.028;2023-05-20T00:23:06;99178.78;;;11.57;70.18
40982;BME280;26708;50.304;19.028;2023-05-20T00:25:12;99170.03;;;11.52;70.17
40982;BME280;26708;50.304;19.028;2023-05-20T00:27:17;99188.38;;;11.55;70.14
40982;BME280;26708;50.304;19.028;2023-05-20T00:29:24;99114.84;;;11.09;70.10
40982;BME280;26708;50.304;19.028;2023-05-20T00:31:29;99233.09;;;11.94;69.94
40982;BME280;26708;50.304;19.028;2023-05-20T00:33:35;99237.47;;;11.92;69.98
40982;BME280;26708;50.304;19.028;2023-05-20T00:35:40;99236.59;;;11.93;69.97
40982;BME280;26708;50.304;19.028;2023-05-20T00:37:45;99236.63;;;11.94;70.01
40982;BME280;26708;50.304;19.028;2023-05-20T00:39:50;99212.97;;;11.81;69.99
40982;BME280;26708;50.304;19.028;2023-05-20T00:41:54;99232.22;;;11.95;70.09
40982;BME280;26708;50.304;19.028;2023-05-20T00:44:01;99205.94;;;11.80;69.95
40982;BME280;26708;50.304;19.028;2023-05-20T00:46:08;99237.50;;;11.98;70.01
40982;BME280;26708;50.304;19.028;2023-05-20T00:48:35;99232.28;;;12.01;69.85
40982;BME280;26708;50.304;19.028;2023-05-20T00:50:59;99234.00;;;11.99;69.85
40982;BME280;26708;50.304;19.028;2023-05-20T00:53:20;99191.06;;;11.69;69.70
40982;BME280;26708;50.304;19.028;2023-05-20T00:55:39;99184.06;;;11.66;69.79
40982;BME280;26708;50.304;19.028;2023-05-20T00:57:59;99227.88;;;11.93;69.91
40982;BME280;26708;50.304;19.028;2023-05-20T01:00:18;99223.47;;;11.86;70.18
40982;BME280;26708;50.304;19.028;2023-05-20T01:02:41;99231.34;;;11.84;70.49
40982;BME280;26708;50.304;19.028;2023-05-20T01:05:00;99192.81;;;11.71;70.38
40982;BME280;26708;50.304;19.028;2023-05-20T01:07:06;99220.84;;;11.88;70.10
40982;BME280;26708;50.304;19.028;2023-05-20T01:09:12;99217.34;;;11.89;70.35
40982;BME280;26708;50.304;19.028;2023-05-20T01:11:24;99213.00;;;11.94;70.24
40982;BME280;26708;50.304;19.028;2023-05-20T01:13:38;99217.38;;;12.00;70.07
40982;BME280;26708;50.304;19.028;2023-05-20T01:15:49;99215.69;;;12.05;69.98
40982;BME280;26708;50.304;19.028;2023-05-20T01:18:02;99216.56;;;12.08;69.69
40982;BME280;26708;50.304;19.028;2023-05-20T01:20:14;99216.56;;;12.07;69.61
40982;BME280;26708;50.304;19.028;2023-05-20T01:24:29;99218.31;;;12.03;69.96
40982;BME280;26708;50.304;19.028;2023-05-20T01:26:35;99211.31;;;12.04;69.81
40982;BME280;26708;50.304;19.028;2023-05-20T01:28:41;99222.69;;;12.06;69.80
40982;BME280;26708;50.304;19.028;2023-05-20T01:30:51;99210.41;;;12.06;69.74
40982;BME280;26708;50.304;19.028;2023-05-20T01:33:04;99158.72;;;11.71;69.63
40982;BME280;26708;50.304;19.028;2023-05-20T01:35:16;99189.38;;;11.93;69.70
40982;BME280;26708;50.304;19.028;2023-05-20T01:37:26;99203.38;;;11.96;69.71
40982;BME280;26708;50.304;19.028;2023-05-20T01:39:34;99211.28;;;12.01;69.81
40982;BME280;26708;50.304;19.028;2023-05-20T01:41:44;99211.31;;;12.02;69.71
40982;BME280;26708;50.304;19.028;2023-05-20T01:43:50;99212.16;;;12.03;69.66
40982;BME280;26708;50.304;19.028;2023-05-20T01:45:55;99207.78;;;12.02;69.67
40982;BME280;26708;50.304;19.028;2023-05-20T01:48:04;99213.03;;;12.00;69.59
40982;BME280;26708;50.304;19.028;2023-05-20T01:50:09;99185.88;;;11.85;69.42
40982;BME280;26708;50.304;19.028;2023-05-20T01:52:14;99209.50;;;11.93;69.53
40982;BME280;26708;50.304;19.028;2023-05-20T01:54:23;99215.59;;;11.87;69.59
40982;BME280;26708;50.304;19.028;2023-05-20T01:56:29;99177.91;;;11.60;69.61
40982;BME280;26708;50.304;19.028;2023-05-20T01:58:34;99209.44;;;11.73;69.81
40982;BME280;26708;50.304;19.028;2023-05-20T02:00:39;99215.53;;;11.65;70.14
40982;BME280;26708;50.304;19.028;2023-05-20T02:02:43;99213.75;;;11.62;70.35
40982;BME280;26708;50.304;19.028;2023-05-20T02:04:50;99212.84;;;11.57;70.86
40982;BME280;26708;50.304;19.028;2023-05-20T02:06:55;99217.22;;;11.52;70.76
40982;BME280;26708;50.304;19.028;2023-05-20T02:09:00;99210.25;;;11.51;70.97
40982;BME280;26708;50.304;19.028;2023-05-20T02:11:07;99078.84;;;10.75;70.88
40982;BME280;26708;50.304;19.028;2023-05-20T02:13:13;99217.25;;;11.57;70.84
40982;BME280;26708;50.304;19.028;2023-05-20T02:15:17;99206.75;;;11.60;70.84
40982;BME280;26708;50.304;19.028;2023-05-20T02:17:22;99231.25;;;11.62;70.91
40982;BME280;26708;50.304;19.028;2023-05-20T02:19:28;99216.38;;;11.65;70.78
40982;BME280;26708;50.304;19.028;2023-05-20T02:21:32;99217.28;;;11.70;70.60
40982;BME280;26708;50.304;19.028;2023-05-20T02:23:37;99206.78;;;11.64;70.69
40982;BME280;26708;50.304;19.028;2023-05-20T02:25:42;99223.41;;;11.74;70.56
40982;BME280;26708;50.304;19.028;2023-05-20T02:27:50;99219.91;;;11.70;70.51
40982;BME280;26708;50.304;19.028;2023-05-20T02:29:55;99184.00;;;11.50;70.61
40982;BME280;26708;50.304;19.028;2023-05-20T02:32:01;99218.16;;;11.68;70.83
40982;BME280;26708;50.304;19.028;2023-05-20T02:34:06;99226.88;;;11.65;70.88
40982;BME280;26708;50.304;19.028;2023-05-20T02:36:10;99219.03;;;11.64;70.90
40982;BME280;26708;50.304;19.028;2023-05-20T02:38:18;99215.50;;;11.60;70.81
40982;BME280;26708;50.304;19.028;2023-05-20T02:40:22;99036.03;;;10.61;70.57
40982;BME280;26708;50.304;19.028;2023-05-20T02:42:28;99232.16;;;11.68;70.59
40982;BME280;26708;50.304;19.028;2023-05-20T02:44:36;99224.31;;;11.70;70.82
40982;BME280;26708;50.304;19.028;2023-05-20T02:46:41;99233.91;;;11.74;70.79
40982;BME280;26708;50.304;19.028;2023-05-20T02:48:45;99201.50;;;11.57;70.85
40982;BME280;26708;50.304;19.028;2023-05-20T02:51:05;99214.63;;;11.64;70.79
40982;BME280;26708;50.304;19.028;2023-05-20T02:53:24;99210.25;;;11.63;70.78
40982;BME280;26708;50.304;19.028;2023-05-20T02:55:44;99232.16;;;11.76;70.99
40982;BME280;26708;50.304;19.028;2023-05-20T02:58:05;99236.53;;;11.74;70.98
40982;BME280;26708;50.304;19.028;2023-05-20T03:00:27;99216.38;;;11.61;71.62
40982;BME280;26708;50.304;19.028;2023-05-20T03:02:47;99231.31;;;11.75;71.36
40982;BME280;26708;50.304;19.028;2023-05-20T03:04:52;99227.81;;;11.76;71.32
40982;BME280;26708;50.304;19.028;2023-05-20T03:06:56;99228.66;;;11.77;71.25
40982;BME280;26708;50.304;19.028;2023-05-20T03:09:01;99247.03;;;11.75;71.35
40982;BME280;26708;50.304;19.028;2023-05-20T03:11:06;99199.75;;;11.57;71.45
40982;BME280;26708;50.304;19.028;2023-05-20T03:13:11;99216.41;;;11.68;71.47
40982;BME280;26708;50.304;19.028;2023-05-20T03:15:15;99198.84;;;11.54;71.45
40982;BME280;26708;50.304;19.028;2023-05-20T03:17:23;99236.53;;;11.78;71.48
40982;BME280;26708;50.304;19.028;2023-05-20T03:19:43;99242.66;;;11.80;71.55
40982;BME280;26708;50.304;19.028;2023-05-20T03:22:02;99159.50;;;11.37;71.62
40982;BME280;26708;50.304;19.028;2023-05-20T03:24:22;99230.47;;;11.82;71.36
40982;BME280;26708;50.304;19.028;2023-05-20T03:26:42;99231.31;;;11.78;71.63
40982;BME280;26708;50.304;19.028;2023-05-20T03:29:02;99176.09;;;11.39;71.60
40982;BME280;26708;50.304;19.028;2023-05-20T03:31:22;99163.03;;;11.47;71.47
40982;BME280;26708;50.304;19.028;2023-05-20T03:33:45;99233.06;;;11.85;71.46
40982;BME280;26708;50.304;19.028;2023-05-20T03:36:04;99237.47;;;11.89;71.43
40982;BME280;26708;50.304;19.028;2023-05-20T03:38:22;99099.91;;;10.88;71.42
40982;BME280;26708;50.304;19.028;2023-05-20T03:40:26;99237.47;;;11.89;71.48
40982;BME280;26708;50.304;19.028;2023-05-20T03:42:31;99239.22;;;11.91;71.52
40982;BME280;26708;50.304;19.028;2023-05-20T03:44:36;99082.47;;;11.02;71.34
40982;BME280;26708;50.304;19.028;2023-05-20T03:46:41;99209.41;;;11.70;71.49
40982;BME280;26708;50.304;19.028;2023-05-20T03:48:50;99150.75;;;11.31;71.50
40982;BME280;26708;50.304;19.028;2023-05-20T03:50:55;99243.63;;;12.00;71.43
40982;BME280;26708;50.304;19.028;2023-05-20T03:53:00;99248.06;;;12.04;71.33
40982;BME280;26708;50.304;19.028;2023-05-20T03:55:04;99118.44;;;11.36;71.18
40982;BME280;26708;50.304;19.028;2023-05-20T03:57:24;99079.06;;;11.12;71.10
40982;BME280;26708;50.304;19.028;2023-05-20T03:59:44;99241.94;;;12.08;71.28
40982;BME280;26708;50.304;19.028;2023-05-20T04:02:05;99244.53;;;12.06;71.23
40982;BME280;26708;50.304;19.028;2023-05-20T04:04:27;99196.34;;;11.81;71.37
40982;BME280;26708;50.304;19.028;2023-05-20T04:06:47;99225.25;;;11.93;71.41
40982;BME280;26708;50.304;19.028;2023-05-20T04:09:06;99250.69;;;12.13;71.25
40982;BME280;26708;50.304;19.028;2023-05-20T04:11:26;99243.69;;;12.06;71.20
40982;BME280;26708;50.304;19.028;2023-05-20T04:13:45;99253.22;;;11.99;71.43
40982;BME280;26708;50.304;19.028;2023-05-20T04:15:51;99247.09;;;11.96;71.69
40982;BME280;26708;50.304;19.028;2023-05-20T04:17:55;99202.44;;;11.71;71.95
40982;BME280;26708;50.304;19.028;2023-05-20T04:20:05;99233.09;;;11.91;72.06
40982;BME280;26708;50.304;19.028;2023-05-20T04:22:13;99210.34;;;11.87;71.71
40982;BME280;26708;50.304;19.028;2023-05-20T04:24:17;99241.03;;;12.03;71.78
40982;BME280;26708;50.304;19.028;2023-05-20T04:26:25;99161.28;;;11.52;71.63
40982;BME280;26708;50.304;19.028;2023-05-20T04:28:31;99156.94;;;11.60;71.53
40982;BME280;26708;50.304;19.028;2023-05-20T04:30:38;99246.31;;;12.10;71.52
40982;BME280;26708;50.304;19.028;2023-05-20T04:32:45;99256.81;;;12.12;71.47
40982;BME280;26708;50.304;19.028;2023-05-20T04:34:52;99227.00;;;11.98;71.42
40982;BME280;26708;50.304;19.028;2023-05-20T04:37:01;99253.31;;;12.19;71.49
40982;BME280;26708;50.304;19.028;2023-05-20T04:39:07;99219.16;;;12.05;71.19
40982;BME280;26708;50.304;19.028;2023-05-20T04:41:13;99254.19;;;12.27;71.09
40982;BME280;26708;50.304;19.028;2023-05-20T04:43:19;99242.84;;;12.29;71.14
40982;BME280;26708;50.304;19.028;2023-05-20T04:45:24;99038.84;;;11.06;70.92
40982;BME280;26708;50.304;19.028;2023-05-20T04:47:30;99098.38;;;11.50;71.03
40982;BME280;26708;50.304;19.028;2023-05-20T04:49:54;99223.56;;;12.26;71.18
40982;BME280;26708;50.304;19.028;2023-05-20T04:52:18;99217.47;;;12.25;71.08
40982;BME280;26708;50.304;19.028;2023-05-20T04:54:39;99242.00;;;12.47;70.99
40982;BME280;26708;50.304;19.028;2023-05-20T04:56:59;99250.75;;;12.46;70.92
40982;BME280;26708;50.304;19.028;2023-05-20T04:59:04;99242.00;;;12.47;70.98
40982;BME280;26708;50.304;19.028;2023-05-20T05:01:09;99249.88;;;12.53;70.94
40982;BME280;26708;50.304;19.028;2023-05-20T05:03:16;99247.25;;;12.56;70.80
40982;BME280;26708;50.304;19.028;2023-05-20T05:05:23;99236.75;;;12.57;70.80
40982;BME280;26708;50.304;19.028;2023-05-20T05:07:30;99249.00;;;12.61;70.69
40982;BME280;26708;50.304;19.028;2023-05-20T05:09:35;99232.38;;;12.52;70.63
40982;BME280;26708;50.304;19.028;2023-05-20T05:11:40;99252.50;;;12.66;70.62
40982;BME280;26708;50.304;19.028;2023-05-20T05:13:45;99138.72;;;12.06;70.59
40982;BME280;26708;50.304;19.028;2023-05-20T05:15:57;99256.00;;;12.70;70.48
40982;BME280;26708;50.304;19.028;2023-05-20T05:18:04;99248.13;;;12.70;70.48
40982;BME280;26708;50.304;19.028;2023-05-20T05:20:25;99227.97;;;12.61;70.42
40982;BME280;26708;50.304;19.028;2023-05-20T05:22:47;99226.25;;;12.68;70.31
40982;BME280;26708;50.304;19.028;2023-05-20T05:25:10;99168.47;;;12.44;70.16
40982;BME280;26708;50.304;19.028;2023-05-20T05:27:31;99243.72;;;12.96;69.87
40982;BME280;26708;50.304;19.028;2023-05-20T05:29:50;99249.00;;;13.03;69.90
40982;BME280;26708;50.304;19.028;2023-05-20T05:32:10;99226.22;;;12.95;69.72
40982;BME280;26708;50.304;19.028;2023-05-20T05:34:29;99241.97;;;13.04;69.73
40982;BME280;26708;50.304;19.028;2023-05-20T05:36:49;99244.63;;;13.10;69.74
40982;BME280;26708;50.304;19.028;2023-05-20T05:39:11;99240.22;;;13.13;69.44
40982;BME280;26708;50.304;19.028;2023-05-20T05:41:31;99236.72;;;13.16;69.58
40982;BME280;26708;50.304;19.028;2023-05-20T05:43:51;99232.38;;;13.16;69.47
40982;BME280;26708;50.304;19.028;2023-05-20T05:46:11;99233.22;;;13.17;69.37
40982;BME280;26708;50.304;19.028;2023-05-20T05:48:30;99235.84;;;13.18;69.52
40982;BME280;26708;50.304;19.028;2023-05-20T05:50:50;99225.31;;;13.15;69.41
40982;BME280;26708;50.304;19.028;2023-05-20T05:53:10;99237.59;;;13.12;69.47
40982;BME280;26708;50.304;19.028;2023-05-20T05:55:38;99222.72;;;12.97;69.38
40982;BME280;26708;50.304;19.028;2023-05-20T05:57:58;99237.59;;;13.06;69.63
40982;BME280;26708;50.304;19.028;2023-05-20T06:00:19;99134.34;;;12.47;69.67
40982;BME280;26708;50.304;19.028;2023-05-20T06:02:38;99217.47;;;12.90;69.70
40982;BME280;26708;50.304;19.028;2023-05-20T06:04:58;99210.44;;;12.84;69.72
40982;BME280;26708;50.304;19.028;2023-05-20T06:07:18;99237.59;;;12.95;70.11
40982;BME280;26708;50.304;19.028;2023-05-20T06:09:38;99242.84;;;12.98;70.23
40982;BME280;26708;50.304;19.028;2023-05-20T06:12:00;99239.38;;;12.98;70.14
40982;BME280;26708;50.304;19.028;2023-05-20T06:14:20;99235.00;;;12.95;70.20
40982;BME280;26708;50.304;19.028;2023-05-20T06:16:40;99131.72;;;12.38;70.30
40982;BME280;26708;50.304;19.028;2023-05-20T06:18:59;99215.69;;;12.95;70.23
40982;BME280;26708;50.304;19.028;2023-05-20T06:21:20;99229.75;;;13.10;70.14
40982;BME280;26708;50.304;19.028;2023-05-20T06:23:40;99222.72;;;13.12;70.13
40982;BME280;26708;50.304;19.028;2023-05-20T06:26:02;99208.69;;;13.03;70.04
40982;BME280;26708;50.304;19.028;2023-05-20T06:28:24;99227.09;;;13.18;69.89
40982;BME280;26708;50.304;19.028;2023-05-20T06:30:44;99220.97;;;13.17;69.63
40982;BME280;26708;50.304;19.028;2023-05-20T06:33:04;99194.66;;;13.04;69.56
40982;BME280;26708;50.304;19.028;2023-05-20T06:35:23;99230.56;;;13.26;69.50
40982;BME280;26708;50.304;19.028;2023-05-20T06:37:43;99227.06;;;13.34;69.38
40982;BME280;26708;50.304;19.028;2023-05-20T06:39:48;99184.16;;;13.10;69.27
40982;BME280;26708;50.304;19.028;2023-05-20T06:41:54;99234.00;;;13.53;69.15
40982;BME280;26708;50.304;19.028;2023-05-20T06:44:06;99226.06;;;13.64;68.73
40982;BME280;26708;50.304;19.028;2023-05-20T06:46:30;99149.94;;;13.31;68.54
40982;BME280;26708;50.304;19.028;2023-05-20T06:48:45;99147.28;;;13.35;68.14
40982;BME280;26708;50.304;19.028;2023-05-20T06:50:50;99218.94;;;13.87;68.04
40982;BME280;26708;50.304;19.028;2023-05-20T06:52:55;99194.41;;;13.79;67.91
40982;BME280;26708;50.304;19.028;2023-05-20T06:55:00;99207.47;;;13.98;67.77
40982;BME280;26708;50.304;19.028;2023-05-20T06:57:06;99040.50;;;13.00;67.31
40982;BME280;26708;50.304;19.028;2023-05-20T06:59:14;99208.34;;;14.02;67.39
40982;BME280;26708;50.304;19.028;2023-05-20T07:01:34;99214.47;;;14.01;67.39
40982;BME280;26708;50.304;19.028;2023-05-20T07:03:54;99191.72;;;13.94;67.41
40982;BME280;26708;50.304;19.028;2023-05-20T07:06:15;99239.03;;;14.04;67.48
40982;BME280;26708;50.304;19.028;2023-05-20T07:08:34;99168.06;;;13.82;67.54
40982;BME280;26708;50.304;19.028;2023-05-20T07:10:54;99199.53;;;14.12;67.40
40982;BME280;26708;50.304;19.028;2023-05-20T07:13:14;99195.16;;;14.06;67.43
40982;BME280;26708;50.304;19.028;2023-05-20T07:15:37;99204.72;;;14.21;67.55
40982;BME280;26708;50.304;19.028;2023-05-20T07:17:56;99109.38;;;13.75;67.30
40982;BME280;26708;50.304;19.028;2023-05-20T07:20:16;99195.94;;;14.26;67.57
40982;BME280;26708;50.304;19.028;2023-05-20T07:22:36;99190.66;;;14.23;67.29
40982;BME280;26708;50.304;19.028;2023-05-20T07:24:56;99196.72;;;14.37;67.26
40982;BME280;26708;50.304;19.028;2023-05-20T07:27:03;99194.03;;;14.42;67.20
40982;BME280;26708;50.304;19.028;2023-05-20T07:29:08;99172.13;;;14.38;67.13
40982;BME280;26708;50.304;19.028;2023-05-20T07:31:17;99160.84;;;14.23;66.75
40982;BME280;26708;50.304;19.028;2023-05-20T07:33:22;99102.19;;;14.00;66.66
40982;BME280;26708;50.304;19.028;2023-05-20T07:35:28;99196.56;;;14.57;66.65
40982;BME280;26708;50.304;19.028;2023-05-20T07:37:33;99169.50;;;14.37;66.58
40982;BME280;26708;50.304;19.028;2023-05-20T07:39:38;99143.34;;;14.16;67.30
40982;BME280;26708;50.304;19.028;2023-05-20T07:41:43;99193.97;;;14.54;67.17
40982;BME280;26708;50.304;19.028;2023-05-20T07:43:50;99176.44;;;14.48;66.97
40982;BME280;26708;50.304;19.028;2023-05-20T07:45:54;99196.44;;;14.70;66.71
40982;BME280;26708;50.304;19.028;2023-05-20T07:48:01;99205.19;;;14.77;66.63
40982;BME280;26708;50.304;19.028;2023-05-20T07:50:07;99201.59;;;14.84;66.70
40982;BME280;26708;50.304;19.028;2023-05-20T07:52:12;98932.56;;;13.34;66.47
40982;BME280;26708;50.304;19.028;2023-05-20T07:54:17;99192.66;;;14.97;66.11
40982;BME280;26708;50.304;19.028;2023-05-20T07:56:25;99197.03;;;15.04;66.25
40982;BME280;26708;50.304;19.028;2023-05-20T07:58:30;99195.25;;;15.06;66.01
40982;BME280;26708;50.304;19.028;2023-05-20T08:00:35;99197.88;;;15.09;65.76
40982;BME280;26708;50.304;19.028;2023-05-20T08:02:42;99194.34;;;15.10;65.87
40982;BME280;26708;50.304;19.028;2023-05-20T08:04:54;99189.91;;;15.12;65.78
40982;BME280;26708;50.304;19.028;2023-05-20T08:06:58;99189.00;;;15.13;65.74
40982;BME280;26708;50.304;19.028;2023-05-20T08:09:16;99181.94;;;15.18;65.76
40982;BME280;26708;50.304;19.028;2023-05-20T08:11:25;99181.03;;;15.19;65.63
40982;BME280;26708;50.304;19.028;2023-05-20T08:13:30;99180.97;;;15.25;65.75
40982;BME280;26708;50.304;19.028;2023-05-20T08:15:36;99177.41;;;15.30;65.57
40982;BME280;26708;50.304;19.028;2023-05-20T08:17:56;99166.78;;;15.35;65.33
40982;BME280;26708;50.304;19.028;2023-05-20T08:20:18;99186.97;;;15.39;65.49
40982;BME280;26708;50.304;19.028;2023-05-20T08:22:40;99167.63;;;15.41;65.40
40982;BME280;26708;50.304;19.028;2023-05-20T08:24:59;99171.94;;;15.47;65.18
40982;BME280;26708;50.304;19.028;2023-05-20T08:27:19;99169.25;;;15.50;65.38
40982;BME280;26708;50.304;19.028;2023-05-20T08:29:38;99043.53;;;14.76;65.17
40982;BME280;26708;50.304;19.028;2023-05-20T08:31:58;99113.19;;;15.33;65.23
40982;BME280;26708;50.304;19.028;2023-05-20T08:34:18;99098.28;;;15.29;65.73
40982;BME280;26708;50.304;19.028;2023-05-20T08:36:40;99124.41;;;15.48;64.93
40982;BME280;26708;50.304;19.028;2023-05-20T08:39:00;99160.09;;;15.76;64.79
40982;BME280;26708;50.304;19.028;2023-05-20T08:41:19;99079.88;;;15.24;64.69
40982;BME280;26708;50.304;19.028;2023-05-20T08:43:40;99134.69;;;15.68;64.94
40982;BME280;26708;50.304;19.028;2023-05-20T08:46:01;99131.91;;;15.78;64.96
40982;BME280;26708;50.304;19.028;2023-05-20T08:48:25;99155.47;;;15.95;64.82
40982;BME280;26708;50.304;19.028;2023-05-20T08:50:49;99156.38;;;15.94;64.09
40982;BME280;26708;50.304;19.028;2023-05-20T08:53:13;99159.78;;;16.00;64.26
40982;BME280;26708;50.304;19.028;2023-05-20T08:55:37;99158.88;;;16.04;64.43
40982;BME280;26708;50.304;19.028;2023-05-20T08:58:02;99164.09;;;16.06;64.32
40982;BME280;26708;50.304;19.028;2023-05-20T09:00:23;99155.34;;;16.04;64.91
40982;BME280;26708;50.304;19.028;2023-05-20T09:02:44;99120.38;;;15.85;64.57
40982;BME280;26708;50.304;19.028;2023-05-20T09:05:05;99118.56;;;15.87;64.48
40982;BME280;26708;50.304;19.028;2023-05-20T09:07:26;99170.94;;;16.20;64.30
40982;BME280;26708;50.304;19.028;2023-05-20T09:09:48;98924.84;;;14.81;63.60
40982;BME280;26708;50.304;19.028;2023-05-20T09:12:08;99172.63;;;16.24;63.57
40982;BME280;26708;50.304;19.028;2023-05-20T09:14:27;99169.97;;;16.25;64.15
40982;BME280;26708;50.304;19.028;2023-05-20T09:16:47;99170.81;;;16.26;64.26
40982;BME280;26708;50.304;19.028;2023-05-20T09:19:07;99169.91;;;16.30;64.28
40982;BME280;26708;50.304;19.028;2023-05-20T09:21:28;99168.22;;;16.24;64.41
40982;BME280;26708;50.304;19.028;2023-05-20T09:23:48;99179.41;;;16.40;64.10
40982;BME280;26708;50.304;19.028;2023-05-20T09:26:11;99177.59;;;16.43;64.06
40982;BME280;26708;50.304;19.028;2023-05-20T09:28:31;99176.69;;;16.44;63.78
40982;BME280;26708;50.304;19.028;2023-05-20T09:30:56;99181.97;;;16.46;63.92
40982;BME280;26708;50.304;19.028;2023-05-20T09:33:16;99141.72;;;16.30;63.81
40982;BME280;26708;50.304;19.028;2023-05-20T09:35:37;99140.91;;;16.25;63.53
40982;BME280;26708;50.304;19.028;2023-05-20T09:37:57;99171.34;;;16.49;63.49
40982;BME280;26708;50.304;19.028;2023-05-20T09:40:18;99069.94;;;16.03;63.67
40982;BME280;26708;50.304;19.028;2023-05-20T09:42:36;99165.84;;;16.61;63.47
40982;BME280;26708;50.304;19.028;2023-05-20T09:44:44;99161.34;;;16.67;63.40
40982;BME280;26708;50.304;19.028;2023-05-20T09:46:53;99159.50;;;16.71;63.36
40982;BME280;26708;50.304;19.028;2023-05-20T09:49:01;99157.75;;;16.70;62.79
40982;BME280;26708;50.304;19.028;2023-05-20T09:51:09;99137.69;;;16.58;63.08
40982;BME280;26708;50.304;19.028;2023-05-20T09:53:16;99120.19;;;16.51;62.95
40982;BME280;26708;50.304;19.028;2023-05-20T09:55:23;99157.75;;;16.71;63.04
40982;BME280;26708;50.304;19.028;2023-05-20T09:57:33;99056.44;;;16.21;62.84
40982;BME280;26708;50.304;19.028;2023-05-20T09:59:40;99150.50;;;16.84;62.57
40982;BME280;26708;50.304;19.028;2023-05-20T10:01:46;99085.94;;;16.45;62.01
40982;BME280;26708;50.304;19.028;2023-05-20T10:03:51;99176.19;;;16.77;62.25
40982;BME280;26708;50.304;19.028;2023-05-20T10:06:21;99147.06;;;16.79;62.37
40982;BME280;26708;50.304;19.028;2023-05-20T10:09:00;99145.13;;;16.88;62.28
40982;BME280;26708;50.304;19.028;2023-05-20T10:11:24;99159.16;;;16.92;61.77
40982;BME280;26708;50.304;19.028;2023-05-20T10:13:57;99071.88;;;16.45;61.96
40982;BME280;26708;50.304;19.028;2023-05-20T10:16:24;99143.38;;;16.87;61.88
40982;BME280;26708;50.304;19.028;2023-05-20T10:18:57;99095.31;;;16.63;62.17
40982;BME280;26708;50.304;19.028;2023-05-20T10:21:14;99121.25;;;16.91;62.33
40982;BME280;26708;50.304;19.028;2023-05-20T10:23:27;99151.69;;;17.13;62.38
40982;BME280;26708;50.304;19.028;2023-05-20T10:25:32;99149.00;;;17.16;61.53
40982;BME280;26708;50.304;19.028;2023-05-20T10:27:43;99124.59;;;17.02;61.51
40982;BME280;26708;50.304;19.028;2023-05-20T10:29:55;99145.41;;;17.19;61.95
40982;BME280;26708;50.304;19.028;2023-05-20T10:32:00;99147.91;;;17.26;61.92
40982;BME280;26708;50.304;19.028;2023-05-20T10:34:13;99032.66;;;16.68;61.79
40982;BME280;26708;50.304;19.028;2023-05-20T10:36:24;99133.78;;;17.27;61.05
40982;BME280;26708;50.304;19.028;2023-05-20T10:38:31;99148.56;;;17.37;61.19
40982;BME280;26708;50.304;19.028;2023-05-20T10:40:36;99009.06;;;16.57;61.00
40982;BME280;26708;50.304;19.028;2023-05-20T10:42:42;99145.06;;;17.37;60.90
40982;BME280;26708;50.304;19.028;2023-05-20T10:44:48;99177.75;;;17.34;60.84
40982;BME280;26708;50.304;19.028;2023-05-20T10:47:03;98889.72;;;15.91;61.35
40982;BME280;26708;50.304;19.028;2023-05-20T10:49:16;99131.72;;;17.43;61.08
40982;BME280;26708;50.304;19.028;2023-05-20T10:51:22;99125.59;;;17.39;60.88
40982;BME280;26708;50.304;19.028;2023-05-20T10:53:36;99129.09;;;17.41;61.49
40982;BME280;26708;50.304;19.028;2023-05-20T10:55:48;99108.84;;;17.37;61.33
40982;BME280;26708;50.304;19.028;2023-05-20T10:57:54;99110.56;;;17.40;61.12
40982;BME280;26708;50.304;19.028;2023-05-20T11:00:03;99124.50;;;17.49;61.02
40982;BME280;26708;50.304;19.028;2023-05-20T11:02:15;99072.91;;;17.27;61.14
40982;BME280;26708;50.304;19.028;2023-05-20T11:04:20;99048.38;;;17.19;60.61
40982;BME280;26708;50.304;19.028;2023-05-20T11:06:27;99060.41;;;17.34;60.71
40982;BME280;26708;50.304;19.028;2023-05-20T11:08:33;99114.22;;;17.75;60.93
40982;BME280;26708;50.304;19.028;2023-05-20T11:10:38;99107.19;;;17.76;60.43
40982;BME280;26708;50.304;19.028;2023-05-20T11:12:48;99125.47;;;17.86;60.24
40982;BME280;26708;50.304;19.028;2023-05-20T11:14:54;99046.09;;;17.44;60.07
40982;BME280;26708;50.304;19.028;2023-05-20T11:16:59;98863.09;;;16.45;60.12
40982;BME280;26708;50.304;19.028;2023-05-20T11:19:13;99113.06;;;17.88;60.43
40982;BME280;26708;50.304;19.028;2023-05-20T11:21:19;99096.59;;;17.74;60.11
40982;BME280;26708;50.304;19.028;2023-05-20T11:23:25;99086.22;;;17.65;60.28
40982;BME280;26708;50.304;19.028;2023-05-20T11:25:32;99084.41;;;17.67;60.36
40982;BME280;26708;50.304;19.028;2023-05-20T11:27:38;99096.69;;;17.71;60.59
40982;BME280;26708;50.304;19.028;2023-05-20T11:29:42;99080.22;;;17.57;60.69
40982;BME280;26708;50.304;19.028;2023-05-20T11:31:49;99094.94;;;17.70;60.97
40982;BME280;26708;50.304;19.028;2023-05-20T11:33:54;99086.13;;;17.70;61.49
40982;BME280;26708;50.304;19.028;2023-05-20T11:36:02;99088.66;;;17.74;61.57